sensor_id;sensor_type;location;lat;lon;timestamp;P1;durP1;ratioP1;P2;durP2;ratioP2
38123;SDS011;23934;47.998;9.832;2022-11-15T00:01:16;5.47;;;2.20;;
38123;SDS011;23934;47.998;9.832;2022-11-15T00:03:42;3.50;;;1.88;;
38123;SDS011;23934;47.998;9.832;2022-11-15T00:06:08;5.40;;;1.92;;
38123;SDS011;23934;47.998;9.832;2022-11-15T00:08:34;5.25;;;1.95;;
38123;SDS011;23934;47.998;9.832;2022-11-15T00:11:01;4.57;;;1.88;;
38123;SDS011;23934;47.998;9.832;2022-11-15T00:13:29;3.45;;;1.90;;
38123;SDS011;23934;47.998;9.832;2022-11-15T00:15:59;4.30;;;2.03;;
38123;SDS011;23934;47.998;9.832;2022-11-15T00:18:25;3.00;;;1.70;;
38123;SDS011;23934;47.998;9.832;2022-11-15T00:20:51;3.75;;;1.88;;
38123;SDS011;23934;47.998;9.832;2022-11-15T00:23:17;3.30;;;1.55;;
38123;SDS011;23934;47.998;9.832;2022-11-15T00:25:43;4.65;;;1.88;;
38123;SDS011;23934;47.998;9.832;2022-11-15T00:28:09;4.38;;;1.83;;
38123;SDS011;23934;47.998;9.832;2022-11-15T00:30:35;4.38;;;1.77;;
38123;SDS011;23934;47.998;9.832;2022-11-15T00:33:05;2.55;;;1.33;;
38123;SDS011;23934;47.998;9.832;2022-11-15T00:35:31;3.40;;;1.65;;
38123;SDS011;23934;47.998;9.832;2022-11-15T00:37:58;4.47;;;2.58;;
38123;SDS011;23934;47.998;9.832;2022-11-15T00:40:24;5.22;;;2.40;;
38123;SDS011;23934;47.998;9.832;2022-11-15T00:42:50;4.18;;;1.98;;
38123;SDS011;23934;47.998;9.832;2022-11-15T00:45:16;3.80;;;2.33;;
38123;SDS011;23934;47.998;9.832;2022-11-15T00:47:45;4.43;;;2.05;;
38123;SDS011;23934;47.998;9.832;2022-11-15T00:50:11;3.10;;;1.55;;
38123;SDS011;23934;47.998;9.832;2022-11-15T00:52:37;3.45;;;1.80;;
38123;SDS011;23934;47.998;9.832;2022-11-15T00:55:03;3.75;;;2.03;;
38123;SDS011;23934;47.998;9.832;2022-11-15T00:57:29;4.47;;;1.33;;
38123;SDS011;23934;47.998;9.832;2022-11-15T00:59:55;3.38;;;1.67;;
38123;SDS011;23934;47.998;9.832;2022-11-15T01:02:21;3.42;;;1.83;;
38123;SDS011;23934;47.998;9.832;2022-11-15T01:04:47;3.47;;;1.75;;
38123;SDS011;23934;47.998;9.832;2022-11-15T01:07:13;2.90;;;1.40;;
38123;SDS011;23934;47.998;9.832;2022-11-15T01:09:39;3.95;;;1.70;;
38123;SDS011;23934;47.998;9.832;2022-11-15T01:12:05;3.83;;;1.95;;
38123;SDS011;23934;47.998;9.832;2022-11-15T01:14:31;5.03;;;1.77;;
38123;SDS011;23934;47.998;9.832;2022-11-15T01:16:57;3.17;;;1.58;;
38123;SDS011;23934;47.998;9.832;2022-11-15T01:19:23;3.60;;;1.80;;
38123;SDS011;23934;47.998;9.832;2022-11-15T01:21:49;6.03;;;2.00;;
38123;SDS011;23934;47.998;9.832;2022-11-15T01:24:15;3.88;;;1.75;;
38123;SDS011;23934;47.998;9.832;2022-11-15T01:26:41;6.63;;;2.13;;
38123;SDS011;23934;47.998;9.832;2022-11-15T01:29:07;5.70;;;2.38;;
38123;SDS011;23934;47.998;9.832;2022-11-15T01:31:33;4.88;;;2.15;;
38123;SDS011;23934;47.998;9.832;2022-11-15T01:33:59;5.70;;;2.65;;
38123;SDS011;23934;47.998;9.832;2022-11-15T01:36:25;7.53;;;2.45;;
38123;SDS011;23934;47.998;9.832;2022-11-15T01:38:54;6.22;;;2.53;;
38123;SDS011;23934;47.998;9.832;2022-11-15T01:41:22;6.20;;;2.50;;
38123;SDS011;23934;47.998;9.832;2022-11-15T01:43:51;11.93;;;2.33;;
38123;SDS011;23934;47.998;9.832;2022-11-15T01:46:33;4.78;;;2.25;;
38123;SDS011;23934;47.998;9.832;2022-11-15T01:49:01;6.10;;;2.72;;
38123;SDS011;23934;47.998;9.832;2022-11-15T01:51:28;5.97;;;2.17;;
38123;SDS011;23934;47.998;9.832;2022-11-15T01:53:57;4.45;;;2.65;;
38123;SDS011;23934;47.998;9.832;2022-11-15T01:56:25;7.45;;;3.00;;
38123;SDS011;23934;47.998;9.832;2022-11-15T01:58:53;8.02;;;2.60;;
38123;SDS011;23934;47.998;9.832;2022-11-15T02:01:21;4.85;;;2.05;;
38123;SDS011;23934;47.998;9.832;2022-11-15T02:06:12;7.85;;;2.10;;
38123;SDS011;23934;47.998;9.832;2022-11-15T02:08:38;4.40;;;2.15;;
38123;SDS011;23934;47.998;9.832;2022-11-15T02:11:07;3.33;;;1.63;;
38123;SDS011;23934;47.998;9.832;2022-11-15T02:13:34;5.35;;;2.40;;
38123;SDS011;23934;47.998;9.832;2022-11-15T02:16:09;3.13;;;1.70;;
38123;SDS011;23934;47.998;9.832;2022-11-15T02:18:41;5.15;;;2.10;;
38123;SDS011;23934;47.998;9.832;2022-11-15T02:21:15;4.95;;;2.08;;
38123;SDS011;23934;47.998;9.832;2022-11-15T02:38:59;9.02;;;2.67;;
38123;SDS011;23934;47.998;9.832;2022-11-15T02:41:30;5.70;;;2.08;;
38123;SDS011;23934;47.998;9.832;2022-11-15T02:44:03;4.18;;;1.98;;
38123;SDS011;23934;47.998;9.832;2022-11-15T02:46:40;5.80;;;2.13;;
38123;SDS011;23934;47.998;9.832;2022-11-15T02:49:28;6.63;;;2.35;;
38123;SDS011;23934;47.998;9.832;2022-11-15T02:54:53;4.47;;;2.25;;
38123;SDS011;23934;47.998;9.832;2022-11-15T02:57:19;5.45;;;1.60;;
38123;SDS011;23934;47.998;9.832;2022-11-15T03:02:28;5.65;;;2.25;;
38123;SDS011;23934;47.998;9.832;2022-11-15T03:04:58;3.55;;;2.00;;
38123;SDS011;23934;47.998;9.832;2022-11-15T03:07:44;4.47;;;2.35;;
38123;SDS011;23934;47.998;9.832;2022-11-15T03:12:47;6.63;;;2.15;;
38123;SDS011;23934;47.998;9.832;2022-11-15T03:15:18;4.93;;;1.75;;
38123;SDS011;23934;47.998;9.832;2022-11-15T03:17:49;5.72;;;2.35;;
38123;SDS011;23934;47.998;9.832;2022-11-15T03:20:18;4.60;;;1.98;;
38123;SDS011;23934;47.998;9.832;2022-11-15T03:22:44;4.13;;;2.20;;
38123;SDS011;23934;47.998;9.832;2022-11-15T03:25:13;6.13;;;2.38;;
38123;SDS011;23934;47.998;9.832;2022-11-15T03:27:41;19.88;;;8.30;;
38123;SDS011;23934;47.998;9.832;2022-11-15T03:30:09;7.13;;;2.40;;
38123;SDS011;23934;47.998;9.832;2022-11-15T03:32:46;12.25;;;2.85;;
38123;SDS011;23934;47.998;9.832;2022-11-15T03:35:14;7.03;;;3.03;;
38123;SDS011;23934;47.998;9.832;2022-11-15T03:37:45;8.63;;;3.00;;
38123;SDS011;23934;47.998;9.832;2022-11-15T03:40:15;6.15;;;3.15;;
38123;SDS011;23934;47.998;9.832;2022-11-15T03:45:15;8.55;;;5.07;;
38123;SDS011;23934;47.998;9.832;2022-11-15T03:47:48;7.88;;;3.97;;
38123;SDS011;23934;47.998;9.832;2022-11-15T03:50:19;5.65;;;2.80;;
38123;SDS011;23934;47.998;9.832;2022-11-15T03:52:46;5.15;;;2.20;;
38123;SDS011;23934;47.998;9.832;2022-11-15T03:55:13;7.22;;;2.47;;
38123;SDS011;23934;47.998;9.832;2022-11-15T03:57:39;3.85;;;2.17;;
38123;SDS011;23934;47.998;9.832;2022-11-15T04:00:06;10.13;;;2.90;;
38123;SDS011;23934;47.998;9.832;2022-11-15T04:02:32;9.35;;;3.20;;
38123;SDS011;23934;47.998;9.832;2022-11-15T04:04:58;6.70;;;2.97;;
38123;SDS011;23934;47.998;9.832;2022-11-15T04:07:24;26.42;;;3.15;;
38123;SDS011;23934;47.998;9.832;2022-11-15T04:09:50;5.07;;;2.60;;
38123;SDS011;23934;47.998;9.832;2022-11-15T04:12:31;6.40;;;2.55;;
38123;SDS011;23934;47.998;9.832;2022-11-15T04:15:02;9.75;;;3.03;;
38123;SDS011;23934;47.998;9.832;2022-11-15T04:17:32;4.53;;;2.08;;
38123;SDS011;23934;47.998;9.832;2022-11-15T04:19:58;7.05;;;2.00;;
38123;SDS011;23934;47.998;9.832;2022-11-15T04:22:43;4.22;;;2.00;;
38123;SDS011;23934;47.998;9.832;2022-11-15T04:25:27;4.63;;;1.70;;
38123;SDS011;23934;47.998;9.832;2022-11-15T04:27:54;7.00;;;2.42;;
38123;SDS011;23934;47.998;9.832;2022-11-15T04:30:20;5.72;;;2.33;;
38123;SDS011;23934;47.998;9.832;2022-11-15T04:32:46;13.32;;;5.28;;
38123;SDS011;23934;47.998;9.832;2022-11-15T04:35:11;8.57;;;3.30;;
38123;SDS011;23934;47.998;9.832;2022-11-15T04:37:37;10.43;;;3.38;;
38123;SDS011;23934;47.998;9.832;2022-11-15T04:40:04;12.43;;;5.13;;
38123;SDS011;23934;47.998;9.832;2022-11-15T04:42:30;8.15;;;3.53;;
38123;SDS011;23934;47.998;9.832;2022-11-15T04:44:56;8.30;;;3.10;;
38123;SDS011;23934;47.998;9.832;2022-11-15T04:47:21;7.95;;;3.42;;
38123;SDS011;23934;47.998;9.832;2022-11-15T04:49:47;7.50;;;2.42;;
38123;SDS011;23934;47.998;9.832;2022-11-15T04:52:13;5.57;;;2.47;;
38123;SDS011;23934;47.998;9.832;2022-11-15T04:54:39;3.70;;;1.70;;
38123;SDS011;23934;47.998;9.832;2022-11-15T04:57:07;4.07;;;1.73;;
38123;SDS011;23934;47.998;9.832;2022-11-15T04:59:33;5.45;;;2.00;;
38123;SDS011;23934;47.998;9.832;2022-11-15T05:01:59;6.03;;;2.20;;
38123;SDS011;23934;47.998;9.832;2022-11-15T05:04:25;5.55;;;2.40;;
38123;SDS011;23934;47.998;9.832;2022-11-15T05:06:51;6.18;;;2.47;;
38123;SDS011;23934;47.998;9.832;2022-11-15T05:09:17;5.05;;;1.95;;
38123;SDS011;23934;47.998;9.832;2022-11-15T05:11:44;3.65;;;2.15;;
38123;SDS011;23934;47.998;9.832;2022-11-15T05:14:10;4.10;;;2.28;;
38123;SDS011;23934;47.998;9.832;2022-11-15T05:16:36;6.13;;;1.98;;
38123;SDS011;23934;47.998;9.832;2022-11-15T05:19:02;4.68;;;2.13;;
38123;SDS011;23934;47.998;9.832;2022-11-15T05:21:28;5.05;;;2.15;;
38123;SDS011;23934;47.998;9.832;2022-11-15T05:23:55;5.80;;;2.42;;
38123;SDS011;23934;47.998;9.832;2022-11-15T05:26:21;5.18;;;2.15;;
38123;SDS011;23934;47.998;9.832;2022-11-15T05:28:51;5.22;;;1.98;;
38123;SDS011;23934;47.998;9.832;2022-11-15T05:31:17;7.95;;;2.45;;
38123;SDS011;23934;47.998;9.832;2022-11-15T05:33:43;5.13;;;2.55;;
38123;SDS011;23934;47.998;9.832;2022-11-15T05:36:17;13.90;;;3.13;;
38123;SDS011;23934;47.998;9.832;2022-11-15T05:38:45;15.48;;;2.85;;
38123;SDS011;23934;47.998;9.832;2022-11-15T05:41:12;27.20;;;8.48;;
38123;SDS011;23934;47.998;9.832;2022-11-15T05:43:38;21.95;;;6.82;;
38123;SDS011;23934;47.998;9.832;2022-11-15T05:46:06;13.88;;;6.30;;
38123;SDS011;23934;47.998;9.832;2022-11-15T05:48:33;15.32;;;6.05;;
38123;SDS011;23934;47.998;9.832;2022-11-15T05:50:59;16.70;;;6.60;;
38123;SDS011;23934;47.998;9.832;2022-11-15T05:53:26;23.13;;;5.05;;
38123;SDS011;23934;47.998;9.832;2022-11-15T05:55:52;13.93;;;4.20;;
38123;SDS011;23934;47.998;9.832;2022-11-15T05:58:19;10.57;;;3.90;;
38123;SDS011;23934;47.998;9.832;2022-11-15T06:00:45;15.50;;;3.78;;
38123;SDS011;23934;47.998;9.832;2022-11-15T06:03:11;6.20;;;2.05;;
38123;SDS011;23934;47.998;9.832;2022-11-15T06:05:39;11.05;;;3.67;;
38123;SDS011;23934;47.998;9.832;2022-11-15T06:08:05;7.50;;;3.15;;
38123;SDS011;23934;47.998;9.832;2022-11-15T06:10:31;6.03;;;2.72;;
38123;SDS011;23934;47.998;9.832;2022-11-15T06:13:00;9.10;;;1.83;;
38123;SDS011;23934;47.998;9.832;2022-11-15T06:15:27;7.63;;;2.78;;
38123;SDS011;23934;47.998;9.832;2022-11-15T06:17:55;8.48;;;2.40;;
38123;SDS011;23934;47.998;9.832;2022-11-15T06:20:22;10.80;;;3.17;;
38123;SDS011;23934;47.998;9.832;2022-11-15T06:22:48;8.80;;;3.60;;
38123;SDS011;23934;47.998;9.832;2022-11-15T06:25:14;7.63;;;2.78;;
38123;SDS011;23934;47.998;9.832;2022-11-15T06:27:40;6.18;;;3.22;;
38123;SDS011;23934;47.998;9.832;2022-11-15T06:30:06;8.98;;;4.68;;
38123;SDS011;23934;47.998;9.832;2022-11-15T06:32:32;8.00;;;3.92;;
38123;SDS011;23934;47.998;9.832;2022-11-15T06:34:58;9.65;;;4.57;;
38123;SDS011;23934;47.998;9.832;2022-11-15T06:37:24;8.60;;;2.97;;
38123;SDS011;23934;47.998;9.832;2022-11-15T06:39:50;5.45;;;2.60;;
38123;SDS011;23934;47.998;9.832;2022-11-15T06:42:16;10.55;;;4.32;;
38123;SDS011;23934;47.998;9.832;2022-11-15T06:44:42;10.55;;;4.45;;
38123;SDS011;23934;47.998;9.832;2022-11-15T06:47:08;8.45;;;3.10;;
38123;SDS011;23934;47.998;9.832;2022-11-15T06:49:34;8.90;;;4.25;;
38123;SDS011;23934;47.998;9.832;2022-11-15T06:52:00;11.48;;;4.03;;
38123;SDS011;23934;47.998;9.832;2022-11-15T06:54:26;12.80;;;3.65;;
38123;SDS011;23934;47.998;9.832;2022-11-15T06:56:52;9.25;;;3.55;;
38123;SDS011;23934;47.998;9.832;2022-11-15T06:59:18;9.00;;;3.25;;
38123;SDS011;23934;47.998;9.832;2022-11-15T07:01:44;14.25;;;3.75;;
38123;SDS011;23934;47.998;9.832;2022-11-15T07:04:10;9.82;;;3.78;;
38123;SDS011;23934;47.998;9.832;2022-11-15T07:06:36;7.93;;;3.55;;
38123;SDS011;23934;47.998;9.832;2022-11-15T07:09:02;7.55;;;3.25;;
38123;SDS011;23934;47.998;9.832;2022-11-15T07:11:28;16.35;;;4.20;;
38123;SDS011;23934;47.998;9.832;2022-11-15T07:13:54;12.52;;;4.00;;
38123;SDS011;23934;47.998;9.832;2022-11-15T07:16:20;9.57;;;4.13;;
38123;SDS011;23934;47.998;9.832;2022-11-15T07:18:46;9.75;;;3.85;;
38123;SDS011;23934;47.998;9.832;2022-11-15T07:21:12;9.25;;;3.97;;
38123;SDS011;23934;47.998;9.832;2022-11-15T07:23:38;9.95;;;4.22;;
38123;SDS011;23934;47.998;9.832;2022-11-15T07:26:04;18.63;;;6.22;;
38123;SDS011;23934;47.998;9.832;2022-11-15T07:28:30;20.80;;;4.97;;
38123;SDS011;23934;47.998;9.832;2022-11-15T07:30:56;15.15;;;5.45;;
38123;SDS011;23934;47.998;9.832;2022-11-15T07:33:22;11.63;;;4.78;;
38123;SDS011;23934;47.998;9.832;2022-11-15T07:35:48;14.27;;;5.40;;
38123;SDS011;23934;47.998;9.832;2022-11-15T07:38:14;12.20;;;3.90;;
38123;SDS011;23934;47.998;9.832;2022-11-15T07:40:41;14.35;;;5.00;;
38123;SDS011;23934;47.998;9.832;2022-11-15T07:43:07;13.48;;;5.13;;
38123;SDS011;23934;47.998;9.832;2022-11-15T07:45:33;56.17;;;15.85;;
38123;SDS011;23934;47.998;9.832;2022-11-15T07:47:59;42.10;;;9.23;;
38123;SDS011;23934;47.998;9.832;2022-11-15T07:50:25;18.42;;;5.07;;
38123;SDS011;23934;47.998;9.832;2022-11-15T07:52:57;12.00;;;5.25;;
38123;SDS011;23934;47.998;9.832;2022-11-15T07:55:24;12.65;;;4.53;;
38123;SDS011;23934;47.998;9.832;2022-11-15T07:57:50;10.20;;;4.07;;
38123;SDS011;23934;47.998;9.832;2022-11-15T08:00:16;12.30;;;4.65;;
38123;SDS011;23934;47.998;9.832;2022-11-15T08:02:42;13.40;;;4.80;;
38123;SDS011;23934;47.998;9.832;2022-11-15T08:05:08;13.63;;;4.40;;
38123;SDS011;23934;47.998;9.832;2022-11-15T08:07:34;14.18;;;5.97;;
38123;SDS011;23934;47.998;9.832;2022-11-15T08:10:00;16.63;;;6.50;;
38123;SDS011;23934;47.998;9.832;2022-11-15T08:12:28;18.35;;;6.43;;
38123;SDS011;23934;47.998;9.832;2022-11-15T08:14:55;21.02;;;8.48;;
38123;SDS011;23934;47.998;9.832;2022-11-15T08:17:22;18.50;;;8.02;;
38123;SDS011;23934;47.998;9.832;2022-11-15T08:19:48;14.23;;;5.13;;
38123;SDS011;23934;47.998;9.832;2022-11-15T08:22:14;7.60;;;4.45;;
38123;SDS011;23934;47.998;9.832;2022-11-15T08:24:40;7.47;;;4.43;;
38123;SDS011;23934;47.998;9.832;2022-11-15T08:27:06;7.57;;;4.30;;
38123;SDS011;23934;47.998;9.832;2022-11-15T08:29:39;11.77;;;4.90;;
38123;SDS011;23934;47.998;9.832;2022-11-15T08:32:06;10.27;;;4.68;;
38123;SDS011;23934;47.998;9.832;2022-11-15T08:34:32;9.25;;;5.15;;
38123;SDS011;23934;47.998;9.832;2022-11-15T08:36:58;12.80;;;4.97;;
38123;SDS011;23934;47.998;9.832;2022-11-15T08:39:24;8.48;;;3.72;;
38123;SDS011;23934;47.998;9.832;2022-11-15T08:41:50;16.42;;;4.45;;
38123;SDS011;23934;47.998;9.832;2022-11-15T08:44:16;13.10;;;5.88;;
38123;SDS011;23934;47.998;9.832;2022-11-15T08:46:42;8.95;;;4.50;;
38123;SDS011;23934;47.998;9.832;2022-11-15T08:49:07;9.38;;;4.00;;
38123;SDS011;23934;47.998;9.832;2022-11-15T08:51:33;7.47;;;3.83;;
38123;SDS011;23934;47.998;9.832;2022-11-15T08:53:59;13.50;;;4.90;;
38123;SDS011;23934;47.998;9.832;2022-11-15T08:56:25;8.10;;;4.22;;
38123;SDS011;23934;47.998;9.832;2022-11-15T08:58:51;9.70;;;4.55;;
38123;SDS011;23934;47.998;9.832;2022-11-15T09:01:18;9.50;;;4.47;;
38123;SDS011;23934;47.998;9.832;2022-11-15T09:03:44;14.70;;;4.95;;
38123;SDS011;23934;47.998;9.832;2022-11-15T09:06:10;10.57;;;5.50;;
38123;SDS011;23934;47.998;9.832;2022-11-15T09:08:36;13.93;;;5.30;;
38123;SDS011;23934;47.998;9.832;2022-11-15T09:11:03;11.13;;;5.45;;
38123;SDS011;23934;47.998;9.832;2022-11-15T09:13:29;14.38;;;5.50;;
38123;SDS011;23934;47.998;9.832;2022-11-15T09:15:58;20.25;;;5.53;;
38123;SDS011;23934;47.998;9.832;2022-11-15T09:18:24;8.70;;;4.00;;
38123;SDS011;23934;47.998;9.832;2022-11-15T09:20:50;10.40;;;4.55;;
38123;SDS011;23934;47.998;9.832;2022-11-15T09:23:16;13.10;;;6.75;;
38123;SDS011;23934;47.998;9.832;2022-11-15T09:25:42;11.23;;;4.20;;
38123;SDS011;23934;47.998;9.832;2022-11-15T09:28:08;21.67;;;10.02;;
38123;SDS011;23934;47.998;9.832;2022-11-15T09:30:34;6.40;;;3.45;;
38123;SDS011;23934;47.998;9.832;2022-11-15T09:33:06;9.05;;;3.90;;
38123;SDS011;23934;47.998;9.832;2022-11-15T09:35:32;12.40;;;5.55;;
38123;SDS011;23934;47.998;9.832;2022-11-15T09:37:58;8.10;;;3.78;;
38123;SDS011;23934;47.998;9.832;2022-11-15T09:40:24;9.65;;;4.65;;
38123;SDS011;23934;47.998;9.832;2022-11-15T09:43:04;9.75;;;4.07;;
38123;SDS011;23934;47.998;9.832;2022-11-15T09:45:32;9.73;;;3.80;;
38123;SDS011;23934;47.998;9.832;2022-11-15T09:50:43;7.25;;;3.88;;
38123;SDS011;23934;47.998;9.832;2022-11-15T09:53:12;12.23;;;5.97;;
38123;SDS011;23934;47.998;9.832;2022-11-15T09:55:50;9.30;;;4.15;;
38123;SDS011;23934;47.998;9.832;2022-11-15T09:58:36;14.15;;;5.38;;
38123;SDS011;23934;47.998;9.832;2022-11-15T10:01:04;8.52;;;4.15;;
38123;SDS011;23934;47.998;9.832;2022-11-15T10:03:35;8.30;;;3.92;;
38123;SDS011;23934;47.998;9.832;2022-11-15T10:06:02;9.60;;;4.28;;
38123;SDS011;23934;47.998;9.832;2022-11-15T10:08:40;15.77;;;4.47;;
38123;SDS011;23934;47.998;9.832;2022-11-15T10:11:11;14.15;;;6.03;;
38123;SDS011;23934;47.998;9.832;2022-11-15T10:13:40;18.38;;;7.75;;
38123;SDS011;23934;47.998;9.832;2022-11-15T10:18:44;10.50;;;4.20;;
38123;SDS011;23934;47.998;9.832;2022-11-15T10:21:15;8.63;;;4.05;;
38123;SDS011;23934;47.998;9.832;2022-11-15T10:23:42;11.35;;;4.85;;
38123;SDS011;23934;47.998;9.832;2022-11-15T10:26:10;8.30;;;4.47;;
38123;SDS011;23934;47.998;9.832;2022-11-15T10:28:37;14.57;;;5.10;;
38123;SDS011;23934;47.998;9.832;2022-11-15T10:31:03;16.90;;;4.50;;
38123;SDS011;23934;47.998;9.832;2022-11-15T10:33:32;19.35;;;4.80;;
38123;SDS011;23934;47.998;9.832;2022-11-15T10:41:12;12.65;;;5.95;;
38123;SDS011;23934;47.998;9.832;2022-11-15T10:43:38;9.80;;;5.07;;
38123;SDS011;23934;47.998;9.832;2022-11-15T10:46:18;10.65;;;4.50;;
38123;SDS011;23934;47.998;9.832;2022-11-15T10:48:45;11.50;;;4.65;;
38123;SDS011;23934;47.998;9.832;2022-11-15T10:51:19;10.05;;;4.60;;
38123;SDS011;23934;47.998;9.832;2022-11-15T10:53:47;10.55;;;4.88;;
38123;SDS011;23934;47.998;9.832;2022-11-15T10:56:14;9.73;;;4.43;;
38123;SDS011;23934;47.998;9.832;2022-11-15T10:58:44;9.88;;;4.65;;
38123;SDS011;23934;47.998;9.832;2022-11-15T11:01:22;11.38;;;4.60;;
38123;SDS011;23934;47.998;9.832;2022-11-15T11:03:58;12.38;;;4.72;;
38123;SDS011;23934;47.998;9.832;2022-11-15T11:06:25;10.98;;;4.80;;
38123;SDS011;23934;47.998;9.832;2022-11-15T11:08:58;10.20;;;4.82;;
38123;SDS011;23934;47.998;9.832;2022-11-15T11:11:25;10.18;;;4.88;;
38123;SDS011;23934;47.998;9.832;2022-11-15T11:14:12;14.63;;;5.00;;
38123;SDS011;23934;47.998;9.832;2022-11-15T11:16:43;12.57;;;4.95;;
38123;SDS011;23934;47.998;9.832;2022-11-15T11:24:32;11.85;;;4.78;;
38123;SDS011;23934;47.998;9.832;2022-11-15T11:27:13;12.52;;;4.95;;
38123;SDS011;23934;47.998;9.832;2022-11-15T11:40:11;8.95;;;4.70;;
38123;SDS011;23934;47.998;9.832;2022-11-15T11:42:50;9.57;;;4.57;;
38123;SDS011;23934;47.998;9.832;2022-11-15T11:50:27;16.35;;;6.63;;
38123;SDS011;23934;47.998;9.832;2022-11-15T11:55:24;10.35;;;5.15;;
38123;SDS011;23934;47.998;9.832;2022-11-15T12:00:30;94.05;;;28.80;;
38123;SDS011;23934;47.998;9.832;2022-11-15T12:05:39;12.90;;;5.57;;
38123;SDS011;23934;47.998;9.832;2022-11-15T12:08:15;17.58;;;6.20;;
38123;SDS011;23934;47.998;9.832;2022-11-15T12:10:44;22.65;;;6.93;;
38123;SDS011;23934;47.998;9.832;2022-11-15T12:13:21;19.20;;;7.35;;
38123;SDS011;23934;47.998;9.832;2022-11-15T12:18:21;15.40;;;6.68;;
38123;SDS011;23934;47.998;9.832;2022-11-15T12:23:21;24.13;;;9.98;;
38123;SDS011;23934;47.998;9.832;2022-11-15T12:25:56;19.73;;;9.48;;
38123;SDS011;23934;47.998;9.832;2022-11-15T12:28:43;21.88;;;10.77;;
38123;SDS011;23934;47.998;9.832;2022-11-15T12:31:16;20.55;;;8.60;;
38123;SDS011;23934;47.998;9.832;2022-11-15T12:33:46;13.63;;;5.85;;
38123;SDS011;23934;47.998;9.832;2022-11-15T12:36:57;14.15;;;6.75;;
38123;SDS011;23934;47.998;9.832;2022-11-15T12:38:59;12.85;;;6.93;;
38123;SDS011;23934;47.998;9.832;2022-11-15T12:41:32;11.30;;;5.50;;
38123;SDS011;23934;47.998;9.832;2022-11-15T12:43:59;12.60;;;5.93;;
38123;SDS011;23934;47.998;9.832;2022-11-15T12:48:55;17.55;;;8.18;;
38123;SDS011;23934;47.998;9.832;2022-11-15T12:52:07;20.00;;;8.18;;
38123;SDS011;23934;47.998;9.832;2022-11-15T13:02:35;19.73;;;8.65;;
38123;SDS011;23934;47.998;9.832;2022-11-15T13:17:51;10.57;;;4.65;;
38123;SDS011;23934;47.998;9.832;2022-11-15T13:20:35;10.05;;;4.78;;
38123;SDS011;23934;47.998;9.832;2022-11-15T13:23:06;9.23;;;4.55;;
38123;SDS011;23934;47.998;9.832;2022-11-15T13:27:59;10.05;;;5.63;;
38123;SDS011;23934;47.998;9.832;2022-11-15T13:30:27;13.43;;;6.25;;
38123;SDS011;23934;47.998;9.832;2022-11-15T13:32:53;10.52;;;5.05;;
38123;SDS011;23934;47.998;9.832;2022-11-15T13:35:26;15.25;;;6.32;;
38123;SDS011;23934;47.998;9.832;2022-11-15T13:37:53;15.68;;;6.43;;
38123;SDS011;23934;47.998;9.832;2022-11-15T13:40:24;11.15;;;5.07;;
38123;SDS011;23934;47.998;9.832;2022-11-15T13:42:52;12.40;;;4.55;;
38123;SDS011;23934;47.998;9.832;2022-11-15T13:45:18;9.68;;;3.85;;
38123;SDS011;23934;47.998;9.832;2022-11-15T13:47:50;10.85;;;4.70;;
38123;SDS011;23934;47.998;9.832;2022-11-15T13:50:16;11.35;;;5.50;;
38123;SDS011;23934;47.998;9.832;2022-11-15T13:52:43;10.52;;;5.05;;
38123;SDS011;23934;47.998;9.832;2022-11-15T13:55:14;11.35;;;5.10;;
38123;SDS011;23934;47.998;9.832;2022-11-15T14:02:55;8.95;;;4.53;;
38123;SDS011;23934;47.998;9.832;2022-11-15T14:05:22;9.77;;;4.38;;
38123;SDS011;23934;47.998;9.832;2022-11-15T14:07:59;8.13;;;4.35;;
38123;SDS011;23934;47.998;9.832;2022-11-15T14:12:55;10.00;;;4.63;;
38123;SDS011;23934;47.998;9.832;2022-11-15T14:17:57;8.85;;;4.75;;
38123;SDS011;23934;47.998;9.832;2022-11-15T14:22:53;8.93;;;4.35;;
38123;SDS011;23934;47.998;9.832;2022-11-15T14:25:20;12.05;;;4.88;;
38123;SDS011;23934;47.998;9.832;2022-11-15T14:30:31;8.68;;;4.20;;
38123;SDS011;23934;47.998;9.832;2022-11-15T14:32:57;9.00;;;4.00;;
38123;SDS011;23934;47.998;9.832;2022-11-15T14:35:23;7.45;;;3.90;;
38123;SDS011;23934;47.998;9.832;2022-11-15T14:37:49;13.00;;;3.95;;
38123;SDS011;23934;47.998;9.832;2022-11-15T14:40:17;9.00;;;3.17;;
38123;SDS011;23934;47.998;9.832;2022-11-15T14:42:46;11.07;;;3.97;;
38123;SDS011;23934;47.998;9.832;2022-11-15T14:45:20;10.43;;;3.63;;
38123;SDS011;23934;47.998;9.832;2022-11-15T14:47:46;7.88;;;4.25;;
38123;SDS011;23934;47.998;9.832;2022-11-15T14:50:13;9.82;;;3.95;;
38123;SDS011;23934;47.998;9.832;2022-11-15T14:52:40;7.40;;;3.60;;
38123;SDS011;23934;47.998;9.832;2022-11-15T14:55:25;8.40;;;3.50;;
38123;SDS011;23934;47.998;9.832;2022-11-15T14:57:53;9.35;;;3.28;;
38123;SDS011;23934;47.998;9.832;2022-11-15T15:00:19;11.32;;;4.30;;
38123;SDS011;23934;47.998;9.832;2022-11-15T15:02:45;8.85;;;4.45;;
38123;SDS011;23934;47.998;9.832;2022-11-15T15:05:25;8.68;;;4.50;;
38123;SDS011;23934;47.998;9.832;2022-11-15T15:07:51;8.95;;;3.95;;
38123;SDS011;23934;47.998;9.832;2022-11-15T15:10:18;11.30;;;4.18;;
38123;SDS011;23934;47.998;9.832;2022-11-15T15:12:44;9.90;;;4.07;;
38123;SDS011;23934;47.998;9.832;2022-11-15T15:17:56;9.50;;;4.20;;
38123;SDS011;23934;47.998;9.832;2022-11-15T15:20:22;11.80;;;4.13;;
38123;SDS011;23934;47.998;9.832;2022-11-15T15:22:48;11.88;;;4.65;;
38123;SDS011;23934;47.998;9.832;2022-11-15T15:25:22;8.77;;;4.20;;
38123;SDS011;23934;47.998;9.832;2022-11-15T15:27:48;12.35;;;5.05;;
38123;SDS011;23934;47.998;9.832;2022-11-15T15:30:15;13.27;;;5.55;;
38123;SDS011;23934;47.998;9.832;2022-11-15T15:32:41;13.32;;;5.20;;
38123;SDS011;23934;47.998;9.832;2022-11-15T15:35:07;10.90;;;4.72;;
38123;SDS011;23934;47.998;9.832;2022-11-15T15:37:35;11.13;;;5.40;;
38123;SDS011;23934;47.998;9.832;2022-11-15T15:40:02;20.27;;;6.28;;
38123;SDS011;23934;47.998;9.832;2022-11-15T15:42:28;10.68;;;4.97;;
38123;SDS011;23934;47.998;9.832;2022-11-15T15:44:53;20.17;;;7.38;;
38123;SDS011;23934;47.998;9.832;2022-11-15T15:47:20;10.68;;;4.95;;
38123;SDS011;23934;47.998;9.832;2022-11-15T15:49:47;11.93;;;5.43;;
38123;SDS011;23934;47.998;9.832;2022-11-15T15:52:13;13.63;;;5.75;;
38123;SDS011;23934;47.998;9.832;2022-11-15T15:54:39;15.32;;;5.85;;
38123;SDS011;23934;47.998;9.832;2022-11-15T15:57:05;15.13;;;5.88;;
38123;SDS011;23934;47.998;9.832;2022-11-15T15:59:31;13.57;;;5.75;;
38123;SDS011;23934;47.998;9.832;2022-11-15T16:01:57;17.80;;;6.05;;
38123;SDS011;23934;47.998;9.832;2022-11-15T16:04:24;24.30;;;11.05;;
38123;SDS011;23934;47.998;9.832;2022-11-15T16:06:50;28.98;;;9.77;;
38123;SDS011;23934;47.998;9.832;2022-11-15T16:09:19;23.70;;;8.93;;
38123;SDS011;23934;47.998;9.832;2022-11-15T16:12:05;15.60;;;7.28;;
38123;SDS011;23934;47.998;9.832;2022-11-15T16:14:32;33.78;;;11.38;;
38123;SDS011;23934;47.998;9.832;2022-11-15T16:16:59;44.30;;;13.52;;
38123;SDS011;23934;47.998;9.832;2022-11-15T16:19:25;27.67;;;11.73;;
38123;SDS011;23934;47.998;9.832;2022-11-15T16:21:50;76.35;;;24.25;;
38123;SDS011;23934;47.998;9.832;2022-11-15T16:24:17;62.65;;;22.73;;
38123;SDS011;23934;47.998;9.832;2022-11-15T16:26:43;84.72;;;24.73;;
38123;SDS011;23934;47.998;9.832;2022-11-15T16:29:09;47.03;;;14.85;;
38123;SDS011;23934;47.998;9.832;2022-11-15T16:31:35;63.00;;;20.23;;
38123;SDS011;23934;47.998;9.832;2022-11-15T16:34:01;72.55;;;21.02;;
38123;SDS011;23934;47.998;9.832;2022-11-15T16:36:30;87.53;;;24.08;;
38123;SDS011;23934;47.998;9.832;2022-11-15T16:38:56;79.68;;;24.95;;
38123;SDS011;23934;47.998;9.832;2022-11-15T16:41:22;63.92;;;20.27;;
38123;SDS011;23934;47.998;9.832;2022-11-15T16:43:48;50.67;;;15.98;;